sensor_id;sensor_type;location;lat;lon;timestamp;P1;durP1;ratioP1;P2;durP2;ratioP2
52102;SDS011;38101;53.126;6.878;2023-02-01T00:02:09;13.98;;;4.45;;
52102;SDS011;38101;53.126;6.878;2023-02-01T00:04:35;17.40;;;4.53;;
52102;SDS011;38101;53.126;6.878;2023-02-01T00:07:00;15.90;;;4.80;;
52102;SDS011;38101;53.126;6.878;2023-02-01T00:09:26;23.65;;;6.43;;
52102;SDS011;38101;53.126;6.878;2023-02-01T00:11:52;17.88;;;5.35;;
52102;SDS011;38101;53.126;6.878;2023-02-01T00:14:18;23.52;;;4.65;;
52102;SDS011;38101;53.126;6.878;2023-02-01T00:16:43;21.42;;;5.60;;
52102;SDS011;38101;53.126;6.878;2023-02-01T00:19:11;19.02;;;5.35;;
52102;SDS011;38101;53.126;6.878;2023-02-01T00:21:38;14.82;;;4.10;;
52102;SDS011;38101;53.126;6.878;2023-02-01T00:24:04;24.17;;;6.15;;
52102;SDS011;38101;53.126;6.878;2023-02-01T00:26:32;20.10;;;5.53;;
52102;SDS011;38101;53.126;6.878;2023-02-01T00:28:59;18.80;;;4.60;;
52102;SDS011;38101;53.126;6.878;2023-02-01T00:31:25;18.77;;;5.30;;
52102;SDS011;38101;53.126;6.878;2023-02-01T00:33:51;21.58;;;5.97;;
52102;SDS011;38101;53.126;6.878;2023-02-01T00:36:17;17.95;;;4.65;;
52102;SDS011;38101;53.126;6.878;2023-02-01T00:38:43;19.15;;;5.65;;
52102;SDS011;38101;53.126;6.878;2023-02-01T00:41:13;22.00;;;6.10;;
52102;SDS011;38101;53.126;6.878;2023-02-01T00:43:40;21.58;;;5.18;;
52102;SDS011;38101;53.126;6.878;2023-02-01T00:46:06;19.23;;;4.68;;
52102;SDS011;38101;53.126;6.878;2023-02-01T00:48:32;20.20;;;5.15;;
52102;SDS011;38101;53.126;6.878;2023-02-01T00:51:01;15.40;;;5.05;;
52102;SDS011;38101;53.126;6.878;2023-02-01T00:53:28;17.75;;;4.18;;
52102;SDS011;38101;53.126;6.878;2023-02-01T00:55:54;20.33;;;4.90;;
52102;SDS011;38101;53.126;6.878;2023-02-01T00:58:21;22.23;;;4.47;;
52102;SDS011;38101;53.126;6.878;2023-02-01T01:00:48;15.63;;;5.28;;
52102;SDS011;38101;53.126;6.878;2023-02-01T01:03:14;15.93;;;4.50;;
52102;SDS011;38101;53.126;6.878;2023-02-01T01:05:46;17.83;;;4.95;;
52102;SDS011;38101;53.126;6.878;2023-02-01T01:08:16;12.32;;;4.35;;
52102;SDS011;38101;53.126;6.878;2023-02-01T01:10:42;16.33;;;4.15;;
52102;SDS011;38101;53.126;6.878;2023-02-01T01:13:08;18.77;;;4.93;;
52102;SDS011;38101;53.126;6.878;2023-02-01T01:15:38;17.90;;;4.65;;
52102;SDS011;38101;53.126;6.878;2023-02-01T01:18:05;15.07;;;3.90;;
52102;SDS011;38101;53.126;6.878;2023-02-01T01:20:31;21.30;;;4.63;;
52102;SDS011;38101;53.126;6.878;2023-02-01T01:22:59;16.92;;;4.95;;
52102;SDS011;38101;53.126;6.878;2023-02-01T01:25:25;20.35;;;4.68;;
52102;SDS011;38101;53.126;6.878;2023-02-01T01:27:51;16.70;;;4.45;;
52102;SDS011;38101;53.126;6.878;2023-02-01T01:30:17;18.55;;;4.10;;
52102;SDS011;38101;53.126;6.878;2023-02-01T01:32:43;19.13;;;4.88;;
52102;SDS011;38101;53.126;6.878;2023-02-01T01:35:09;22.65;;;5.68;;
52102;SDS011;38101;53.126;6.878;2023-02-01T01:37:35;17.73;;;4.45;;
52102;SDS011;38101;53.126;6.878;2023-02-01T01:40:02;20.98;;;4.20;;
52102;SDS011;38101;53.126;6.878;2023-02-01T01:42:29;12.77;;;4.38;;
52102;SDS011;38101;53.126;6.878;2023-02-01T01:47:26;15.80;;;4.55;;
52102;SDS011;38101;53.126;6.878;2023-02-01T01:49:59;15.98;;;4.40;;
52102;SDS011;38101;53.126;6.878;2023-02-01T01:52:25;18.63;;;5.55;;
52102;SDS011;38101;53.126;6.878;2023-02-01T01:54:51;15.90;;;4.43;;
52102;SDS011;38101;53.126;6.878;2023-02-01T01:57:20;20.42;;;5.13;;
52102;SDS011;38101;53.126;6.878;2023-02-01T01:59:53;17.88;;;4.65;;
52102;SDS011;38101;53.126;6.878;2023-02-01T02:02:26;18.98;;;4.80;;
52102;SDS011;38101;53.126;6.878;2023-02-01T02:04:51;20.02;;;4.55;;
52102;SDS011;38101;53.126;6.878;2023-02-01T02:07:18;13.75;;;4.45;;
52102;SDS011;38101;53.126;6.878;2023-02-01T02:09:50;17.00;;;4.65;;
52102;SDS011;38101;53.126;6.878;2023-02-01T02:12:16;15.38;;;4.30;;
52102;SDS011;38101;53.126;6.878;2023-02-01T02:14:41;13.48;;;4.00;;
52102;SDS011;38101;53.126;6.878;2023-02-01T02:34:11;14.15;;;4.38;;
52102;SDS011;38101;53.126;6.878;2023-02-01T02:37:01;17.63;;;5.13;;
52102;SDS011;38101;53.126;6.878;2023-02-01T02:39:44;16.23;;;4.75;;
52102;SDS011;38101;53.126;6.878;2023-02-01T02:45:48;14.32;;;4.03;;
52102;SDS011;38101;53.126;6.878;2023-02-01T02:51:41;18.55;;;5.43;;
52102;SDS011;38101;53.126;6.878;2023-02-01T02:54:47;17.08;;;5.13;;
52102;SDS011;38101;53.126;6.878;2023-02-01T02:57:30;16.27;;;5.03;;
52102;SDS011;38101;53.126;6.878;2023-02-01T03:00:18;16.35;;;4.45;;
52102;SDS011;38101;53.126;6.878;2023-02-01T03:03:05;17.83;;;4.78;;
52102;SDS011;38101;53.126;6.878;2023-02-01T03:08:21;17.60;;;4.32;;
52102;SDS011;38101;53.126;6.878;2023-02-01T03:11:07;13.05;;;3.97;;
52102;SDS011;38101;53.126;6.878;2023-02-01T03:13:42;16.00;;;4.50;;
52102;SDS011;38101;53.126;6.878;2023-02-01T03:16:19;17.10;;;4.90;;
52102;SDS011;38101;53.126;6.878;2023-02-01T03:21:58;20.05;;;5.43;;
52102;SDS011;38101;53.126;6.878;2023-02-01T03:24:42;14.75;;;4.70;;
52102;SDS011;38101;53.126;6.878;2023-02-01T03:27:19;15.77;;;4.65;;
52102;SDS011;38101;53.126;6.878;2023-02-01T03:29:54;18.33;;;5.15;;
52102;SDS011;38101;53.126;6.878;2023-02-01T03:32:26;18.35;;;4.30;;
52102;SDS011;38101;53.126;6.878;2023-02-01T03:34:52;16.08;;;4.40;;
52102;SDS011;38101;53.126;6.878;2023-02-01T03:37:26;16.88;;;4.47;;
52102;SDS011;38101;53.126;6.878;2023-02-01T03:40:11;14.23;;;3.97;;
52102;SDS011;38101;53.126;6.878;2023-02-01T03:42:38;18.73;;;4.60;;
52102;SDS011;38101;53.126;6.878;2023-02-01T03:45:10;18.30;;;4.22;;
52102;SDS011;38101;53.126;6.878;2023-02-01T03:47:42;20.10;;;5.28;;
52102;SDS011;38101;53.126;6.878;2023-02-01T03:50:14;25.02;;;5.70;;
52102;SDS011;38101;53.126;6.878;2023-02-01T03:52:56;13.38;;;4.53;;
52102;SDS011;38101;53.126;6.878;2023-02-01T03:55:26;11.40;;;3.97;;
52102;SDS011;38101;53.126;6.878;2023-02-01T03:57:58;14.88;;;4.40;;
52102;SDS011;38101;53.126;6.878;2023-02-01T04:00:34;14.70;;;4.35;;
52102;SDS011;38101;53.126;6.878;2023-02-01T04:03:00;16.15;;;5.15;;
52102;SDS011;38101;53.126;6.878;2023-02-01T04:05:28;14.15;;;4.57;;
52102;SDS011;38101;53.126;6.878;2023-02-01T04:07:55;18.38;;;4.47;;
52102;SDS011;38101;53.126;6.878;2023-02-01T04:10:21;21.10;;;5.88;;
52102;SDS011;38101;53.126;6.878;2023-02-01T04:12:47;18.20;;;4.65;;
52102;SDS011;38101;53.126;6.878;2023-02-01T04:15:13;15.95;;;4.80;;
52102;SDS011;38101;53.126;6.878;2023-02-01T04:17:38;14.60;;;4.60;;
52102;SDS011;38101;53.126;6.878;2023-02-01T04:20:04;19.98;;;4.72;;
52102;SDS011;38101;53.126;6.878;2023-02-01T04:22:30;15.77;;;4.85;;
52102;SDS011;38101;53.126;6.878;2023-02-01T04:24:56;19.73;;;4.90;;
52102;SDS011;38101;53.126;6.878;2023-02-01T04:27:21;16.58;;;4.30;;
52102;SDS011;38101;53.126;6.878;2023-02-01T04:29:47;17.25;;;4.97;;
52102;SDS011;38101;53.126;6.878;2023-02-01T04:32:15;18.73;;;4.40;;
52102;SDS011;38101;53.126;6.878;2023-02-01T04:34:41;15.80;;;4.53;;
52102;SDS011;38101;53.126;6.878;2023-02-01T04:37:07;17.92;;;4.75;;
52102;SDS011;38101;53.126;6.878;2023-02-01T04:39:33;21.70;;;5.03;;
52102;SDS011;38101;53.126;6.878;2023-02-01T04:41:58;19.50;;;4.28;;
52102;SDS011;38101;53.126;6.878;2023-02-01T04:44:24;13.48;;;4.50;;
52102;SDS011;38101;53.126;6.878;2023-02-01T04:46:50;19.55;;;5.35;;
52102;SDS011;38101;53.126;6.878;2023-02-01T04:49:16;15.55;;;4.55;;
52102;SDS011;38101;53.126;6.878;2023-02-01T04:51:42;17.05;;;5.13;;
52102;SDS011;38101;53.126;6.878;2023-02-01T04:54:08;18.33;;;4.63;;
52102;SDS011;38101;53.126;6.878;2023-02-01T04:56:34;14.00;;;5.38;;
52102;SDS011;38101;53.126;6.878;2023-02-01T04:59:00;17.30;;;4.95;;
52102;SDS011;38101;53.126;6.878;2023-02-01T05:01:27;22.92;;;5.70;;
52102;SDS011;38101;53.126;6.878;2023-02-01T05:03:53;18.60;;;5.75;;
52102;SDS011;38101;53.126;6.878;2023-02-01T05:06:18;20.90;;;5.90;;
52102;SDS011;38101;53.126;6.878;2023-02-01T05:08:44;14.23;;;4.95;;
52102;SDS011;38101;53.126;6.878;2023-02-01T05:11:10;17.67;;;5.35;;
52102;SDS011;38101;53.126;6.878;2023-02-01T05:13:55;20.02;;;5.50;;
52102;SDS011;38101;53.126;6.878;2023-02-01T05:16:21;17.25;;;5.10;;
52102;SDS011;38101;53.126;6.878;2023-02-01T05:18:47;14.82;;;5.05;;
52102;SDS011;38101;53.126;6.878;2023-02-01T05:21:12;14.43;;;4.50;;
52102;SDS011;38101;53.126;6.878;2023-02-01T05:23:38;14.82;;;5.05;;
52102;SDS011;38101;53.126;6.878;2023-02-01T05:26:22;22.58;;;4.80;;
52102;SDS011;38101;53.126;6.878;2023-02-01T05:28:49;20.08;;;4.80;;
52102;SDS011;38101;53.126;6.878;2023-02-01T05:31:15;19.02;;;5.00;;
52102;SDS011;38101;53.126;6.878;2023-02-01T05:33:40;18.20;;;5.57;;
52102;SDS011;38101;53.126;6.878;2023-02-01T05:36:06;16.23;;;4.25;;
52102;SDS011;38101;53.126;6.878;2023-02-01T05:38:32;16.63;;;4.57;;
52102;SDS011;38101;53.126;6.878;2023-02-01T05:40:58;16.75;;;5.10;;
52102;SDS011;38101;53.126;6.878;2023-02-01T05:43:23;21.05;;;5.10;;
52102;SDS011;38101;53.126;6.878;2023-02-01T05:45:51;16.65;;;4.85;;
52102;SDS011;38101;53.126;6.878;2023-02-01T05:48:16;17.67;;;5.38;;
52102;SDS011;38101;53.126;6.878;2023-02-01T05:50:42;17.02;;;4.40;;
52102;SDS011;38101;53.126;6.878;2023-02-01T05:53:08;19.92;;;6.30;;
52102;SDS011;38101;53.126;6.878;2023-02-01T05:55:34;16.38;;;4.68;;
52102;SDS011;38101;53.126;6.878;2023-02-01T05:58:01;16.63;;;4.63;;
52102;SDS011;38101;53.126;6.878;2023-02-01T06:00:26;19.10;;;5.30;;
52102;SDS011;38101;53.126;6.878;2023-02-01T06:02:52;17.23;;;4.68;;
52102;SDS011;38101;53.126;6.878;2023-02-01T06:05:18;18.30;;;5.13;;
52102;SDS011;38101;53.126;6.878;2023-02-01T06:07:43;14.48;;;4.70;;
52102;SDS011;38101;53.126;6.878;2023-02-01T06:10:09;15.75;;;4.50;;
52102;SDS011;38101;53.126;6.878;2023-02-01T06:12:35;10.18;;;4.00;;
52102;SDS011;38101;53.126;6.878;2023-02-01T06:15:01;16.40;;;4.40;;
52102;SDS011;38101;53.126;6.878;2023-02-01T06:17:26;14.13;;;3.92;;
52102;SDS011;38101;53.126;6.878;2023-02-01T06:19:52;12.38;;;4.68;;
52102;SDS011;38101;53.126;6.878;2023-02-01T06:22:18;19.73;;;4.43;;
52102;SDS011;38101;53.126;6.878;2023-02-01T06:24:43;17.10;;;4.72;;
52102;SDS011;38101;53.126;6.878;2023-02-01T06:27:09;19.70;;;4.43;;
52102;SDS011;38101;53.126;6.878;2023-02-01T06:29:35;17.00;;;4.60;;
52102;SDS011;38101;53.126;6.878;2023-02-01T06:32:01;13.98;;;4.50;;
52102;SDS011;38101;53.126;6.878;2023-02-01T06:34:28;14.65;;;5.20;;
52102;SDS011;38101;53.126;6.878;2023-02-01T06:36:54;18.67;;;4.85;;
52102;SDS011;38101;53.126;6.878;2023-02-01T06:39:20;14.63;;;4.25;;
52102;SDS011;38101;53.126;6.878;2023-02-01T06:41:46;20.38;;;4.40;;
52102;SDS011;38101;53.126;6.878;2023-02-01T06:44:12;13.40;;;4.00;;
52102;SDS011;38101;53.126;6.878;2023-02-01T06:46:38;19.05;;;4.68;;
52102;SDS011;38101;53.126;6.878;2023-02-01T06:49:04;17.48;;;5.43;;
52102;SDS011;38101;53.126;6.878;2023-02-01T06:51:30;14.93;;;4.47;;
52102;SDS011;38101;53.126;6.878;2023-02-01T06:53:56;16.65;;;4.05;;
52102;SDS011;38101;53.126;6.878;2023-02-01T06:56:22;17.77;;;5.35;;
52102;SDS011;38101;53.126;6.878;2023-02-01T06:58:48;16.02;;;5.07;;
52102;SDS011;38101;53.126;6.878;2023-02-01T07:01:14;15.60;;;3.95;;
52102;SDS011;38101;53.126;6.878;2023-02-01T07:03:40;14.35;;;4.65;;
52102;SDS011;38101;53.126;6.878;2023-02-01T07:06:06;13.65;;;4.35;;
52102;SDS011;38101;53.126;6.878;2023-02-01T07:08:34;16.50;;;4.05;;
52102;SDS011;38101;53.126;6.878;2023-02-01T07:11:09;17.33;;;5.07;;
52102;SDS011;38101;53.126;6.878;2023-02-01T07:13:35;14.25;;;4.60;;
52102;SDS011;38101;53.126;6.878;2023-02-01T07:16:02;13.77;;;4.15;;
52102;SDS011;38101;53.126;6.878;2023-02-01T07:18:30;15.82;;;4.35;;
52102;SDS011;38101;53.126;6.878;2023-02-01T07:20:56;22.73;;;4.57;;
52102;SDS011;38101;53.126;6.878;2023-02-01T07:23:22;14.90;;;4.30;;
52102;SDS011;38101;53.126;6.878;2023-02-01T07:25:49;12.05;;;3.83;;
52102;SDS011;38101;53.126;6.878;2023-02-01T07:28:21;20.60;;;4.65;;
52102;SDS011;38101;53.126;6.878;2023-02-01T07:30:48;16.45;;;4.65;;
52102;SDS011;38101;53.126;6.878;2023-02-01T07:33:22;15.35;;;3.97;;
52102;SDS011;38101;53.126;6.878;2023-02-01T07:35:50;16.40;;;5.50;;
52102;SDS011;38101;53.126;6.878;2023-02-01T07:38:16;15.73;;;4.88;;
52102;SDS011;38101;53.126;6.878;2023-02-01T07:40:42;19.38;;;5.22;;
52102;SDS011;38101;53.126;6.878;2023-02-01T07:43:08;19.27;;;4.60;;
52102;SDS011;38101;53.126;6.878;2023-02-01T07:45:34;16.92;;;4.47;;
52102;SDS011;38101;53.126;6.878;2023-02-01T07:48:00;21.35;;;4.75;;
52102;SDS011;38101;53.126;6.878;2023-02-01T07:50:26;18.38;;;4.85;;
52102;SDS011;38101;53.126;6.878;2023-02-01T07:52:52;21.77;;;5.47;;
52102;SDS011;38101;53.126;6.878;2023-02-01T07:55:19;18.40;;;4.97;;
52102;SDS011;38101;53.126;6.878;2023-02-01T07:57:45;14.18;;;4.68;;
52102;SDS011;38101;53.126;6.878;2023-02-01T08:00:11;19.00;;;5.25;;
52102;SDS011;38101;53.126;6.878;2023-02-01T08:02:59;16.23;;;4.15;;
52102;SDS011;38101;53.126;6.878;2023-02-01T08:05:25;13.55;;;4.45;;
52102;SDS011;38101;53.126;6.878;2023-02-01T08:07:51;20.45;;;4.82;;
52102;SDS011;38101;53.126;6.878;2023-02-01T08:10:17;17.33;;;5.20;;
52102;SDS011;38101;53.126;6.878;2023-02-01T08:12:44;18.63;;;5.10;;
52102;SDS011;38101;53.126;6.878;2023-02-01T08:15:14;19.30;;;5.55;;
52102;SDS011;38101;53.126;6.878;2023-02-01T08:17:45;15.30;;;4.53;;
52102;SDS011;38101;53.126;6.878;2023-02-01T08:20:13;14.52;;;4.22;;
52102;SDS011;38101;53.126;6.878;2023-02-01T08:22:39;19.48;;;5.28;;
52102;SDS011;38101;53.126;6.878;2023-02-01T08:25:05;13.40;;;4.43;;
52102;SDS011;38101;53.126;6.878;2023-02-01T08:27:34;15.43;;;4.57;;
52102;SDS011;38101;53.126;6.878;2023-02-01T08:30:00;16.80;;;5.03;;
52102;SDS011;38101;53.126;6.878;2023-02-01T08:32:26;15.65;;;4.65;;
52102;SDS011;38101;53.126;6.878;2023-02-01T08:34:52;19.58;;;5.47;;
52102;SDS011;38101;53.126;6.878;2023-02-01T08:37:18;25.13;;;6.00;;
52102;SDS011;38101;53.126;6.878;2023-02-01T08:39:44;18.80;;;4.75;;
52102;SDS011;38101;53.126;6.878;2023-02-01T08:42:10;16.75;;;5.20;;
52102;SDS011;38101;53.126;6.878;2023-02-01T08:47:21;16.63;;;4.38;;
52102;SDS011;38101;53.126;6.878;2023-02-01T08:49:47;14.98;;;4.65;;
52102;SDS011;38101;53.126;6.878;2023-02-01T08:52:13;17.85;;;4.82;;
52102;SDS011;38101;53.126;6.878;2023-02-01T08:54:38;13.43;;;4.43;;
52102;SDS011;38101;53.126;6.878;2023-02-01T08:57:06;20.92;;;5.07;;
52102;SDS011;38101;53.126;6.878;2023-02-01T08:59:32;16.25;;;4.78;;
52102;SDS011;38101;53.126;6.878;2023-02-01T09:01:57;19.13;;;4.97;;
52102;SDS011;38101;53.126;6.878;2023-02-01T09:04:23;17.20;;;4.50;;
52102;SDS011;38101;53.126;6.878;2023-02-01T09:06:49;17.77;;;4.90;;
52102;SDS011;38101;53.126;6.878;2023-02-01T09:09:14;14.57;;;4.43;;
52102;SDS011;38101;53.126;6.878;2023-02-01T09:11:40;15.95;;;4.82;;
52102;SDS011;38101;53.126;6.878;2023-02-01T09:14:06;20.88;;;4.60;;
52102;SDS011;38101;53.126;6.878;2023-02-01T09:16:32;14.98;;;4.22;;
52102;SDS011;38101;53.126;6.878;2023-02-01T09:18:58;14.38;;;4.82;;
52102;SDS011;38101;53.126;6.878;2023-02-01T09:21:23;11.27;;;4.68;;
52102;SDS011;38101;53.126;6.878;2023-02-01T09:23:52;14.65;;;4.28;;
52102;SDS011;38101;53.126;6.878;2023-02-01T09:26:18;19.08;;;4.93;;
52102;SDS011;38101;53.126;6.878;2023-02-01T09:28:43;17.15;;;4.18;;
52102;SDS011;38101;53.126;6.878;2023-02-01T09:31:09;14.50;;;3.72;;
52102;SDS011;38101;53.126;6.878;2023-02-01T09:33:35;16.10;;;4.63;;
52102;SDS011;38101;53.126;6.878;2023-02-01T09:36:02;17.30;;;4.63;;
52102;SDS011;38101;53.126;6.878;2023-02-01T09:38:30;12.63;;;4.78;;
52102;SDS011;38101;53.126;6.878;2023-02-01T09:40:56;13.60;;;4.30;;
52102;SDS011;38101;53.126;6.878;2023-02-01T09:46:06;19.80;;;4.40;;
52102;SDS011;38101;53.126;6.878;2023-02-01T09:48:47;13.63;;;4.45;;
52102;SDS011;38101;53.126;6.878;2023-02-01T09:51:23;16.27;;;3.85;;
52102;SDS011;38101;53.126;6.878;2023-02-01T09:54:00;15.88;;;4.57;;
52102;SDS011;38101;53.126;6.878;2023-02-01T09:59:50;17.53;;;4.57;;
52102;SDS011;38101;53.126;6.878;2023-02-01T10:02:23;13.48;;;4.38;;
52102;SDS011;38101;53.126;6.878;2023-02-01T10:04:52;16.92;;;4.32;;
52102;SDS011;38101;53.126;6.878;2023-02-01T10:07:33;16.17;;;4.50;;
52102;SDS011;38101;53.126;6.878;2023-02-01T10:10:15;12.98;;;3.85;;
52102;SDS011;38101;53.126;6.878;2023-02-01T10:22:07;13.00;;;4.65;;
52102;SDS011;38101;53.126;6.878;2023-02-01T10:24:22;15.25;;;4.22;;
52102;SDS011;38101;53.126;6.878;2023-02-01T10:27:06;16.27;;;4.38;;
52102;SDS011;38101;53.126;6.878;2023-02-01T10:29:39;18.60;;;4.20;;
52102;SDS011;38101;53.126;6.878;2023-02-01T10:32:31;15.82;;;4.10;;
52102;SDS011;38101;53.126;6.878;2023-02-01T10:37:42;18.38;;;4.53;;
52102;SDS011;38101;53.126;6.878;2023-02-01T10:40:15;14.20;;;3.60;;
52102;SDS011;38101;53.126;6.878;2023-02-01T10:42:47;10.05;;;3.38;;
52102;SDS011;38101;53.126;6.878;2023-02-01T10:45:15;13.77;;;4.13;;
52102;SDS011;38101;53.126;6.878;2023-02-01T10:47:44;13.82;;;4.40;;
52102;SDS011;38101;53.126;6.878;2023-02-01T10:50:25;15.02;;;4.03;;
52102;SDS011;38101;53.126;6.878;2023-02-01T10:53:20;14.45;;;3.90;;
52102;SDS011;38101;53.126;6.878;2023-02-01T10:55:51;11.30;;;3.88;;
52102;SDS011;38101;53.126;6.878;2023-02-01T10:58:42;13.38;;;3.70;;
52102;SDS011;38101;53.126;6.878;2023-02-01T11:01:18;12.80;;;3.60;;
52102;SDS011;38101;53.126;6.878;2023-02-01T11:08:51;12.13;;;3.47;;
52102;SDS011;38101;53.126;6.878;2023-02-01T11:12:20;15.93;;;4.07;;
52102;SDS011;38101;53.126;6.878;2023-02-01T11:14:30;14.18;;;3.63;;
52102;SDS011;38101;53.126;6.878;2023-02-01T11:17:01;13.40;;;3.38;;
52102;SDS011;38101;53.126;6.878;2023-02-01T11:19:46;12.43;;;3.58;;
52102;SDS011;38101;53.126;6.878;2023-02-01T11:22:21;15.45;;;3.80;;
52102;SDS011;38101;53.126;6.878;2023-02-01T11:24:47;15.48;;;4.28;;
52102;SDS011;38101;53.126;6.878;2023-02-01T11:27:17;18.58;;;4.07;;
52102;SDS011;38101;53.126;6.878;2023-02-01T11:29:46;11.60;;;3.85;;
52102;SDS011;38101;53.126;6.878;2023-02-01T11:32:16;14.10;;;4.43;;
52102;SDS011;38101;53.126;6.878;2023-02-01T11:34:45;13.95;;;4.47;;
52102;SDS011;38101;53.126;6.878;2023-02-01T11:37:25;18.35;;;4.63;;
52102;SDS011;38101;53.126;6.878;2023-02-01T11:39:55;16.77;;;4.28;;
52102;SDS011;38101;53.126;6.878;2023-02-01T11:42:26;14.38;;;3.53;;
52102;SDS011;38101;53.126;6.878;2023-02-01T11:47:54;10.38;;;2.92;;
52102;SDS011;38101;53.126;6.878;2023-02-01T11:50:24;4.55;;;1.65;;
52102;SDS011;38101;53.126;6.878;2023-02-01T11:53:20;2.40;;;0.80;;
52102;SDS011;38101;53.126;6.878;2023-02-01T11:56:09;2.30;;;0.82;;
52102;SDS011;38101;53.126;6.878;2023-02-01T12:11:44;3.17;;;1.10;;
52102;SDS011;38101;53.126;6.878;2023-02-01T12:23:18;3.88;;;1.27;;
52102;SDS011;38101;53.126;6.878;2023-02-01T12:34:52;6.03;;;2.08;;
52102;SDS011;38101;53.126;6.878;2023-02-01T12:43:12;8.63;;;2.60;;
52102;SDS011;38101;53.126;6.878;2023-02-01T12:45:52;11.93;;;3.65;;
52102;SDS011;38101;53.126;6.878;2023-02-01T12:48:25;9.95;;;3.63;;
52102;SDS011;38101;53.126;6.878;2023-02-01T12:51:03;19.10;;;5.07;;
52102;SDS011;38101;53.126;6.878;2023-02-01T12:53:38;18.85;;;4.88;;
52102;SDS011;38101;53.126;6.878;2023-02-01T12:59:13;20.58;;;4.57;;
52102;SDS011;38101;53.126;6.878;2023-02-01T13:02:06;23.40;;;5.73;;
52102;SDS011;38101;53.126;6.878;2023-02-01T13:05:02;15.75;;;4.38;;
52102;SDS011;38101;53.126;6.878;2023-02-01T13:07:53;17.75;;;4.93;;
52102;SDS011;38101;53.126;6.878;2023-02-01T13:10:40;16.45;;;4.85;;
52102;SDS011;38101;53.126;6.878;2023-02-01T13:15:49;14.52;;;4.38;;
52102;SDS011;38101;53.126;6.878;2023-02-01T13:18:20;16.40;;;4.35;;
52102;SDS011;38101;53.126;6.878;2023-02-01T13:20:49;21.20;;;5.43;;
52102;SDS011;38101;53.126;6.878;2023-02-01T13:23:37;16.63;;;4.38;;
52102;SDS011;38101;53.126;6.878;2023-02-01T13:26:04;21.73;;;5.15;;
52102;SDS011;38101;53.126;6.878;2023-02-01T13:28:45;17.25;;;4.55;;
52102;SDS011;38101;53.126;6.878;2023-02-01T13:40:05;17.42;;;5.32;;
52102;SDS011;38101;53.126;6.878;2023-02-01T13:42:56;13.80;;;4.28;;
52102;SDS011;38101;53.126;6.878;2023-02-01T13:45:36;23.67;;;5.72;;
52102;SDS011;38101;53.126;6.878;2023-02-01T13:48:15;19.63;;;5.35;;
52102;SDS011;38101;53.126;6.878;2023-02-01T13:50:55;17.67;;;5.25;;
52102;SDS011;38101;53.126;6.878;2023-02-01T13:54:05;21.65;;;4.90;;
52102;SDS011;38101;53.126;6.878;2023-02-01T13:56:14;20.33;;;5.32;;
52102;SDS011;38101;53.126;6.878;2023-02-01T13:58:41;14.13;;;4.15;;
52102;SDS011;38101;53.126;6.878;2023-02-01T14:03:47;14.93;;;4.00;;
52102;SDS011;38101;53.126;6.878;2023-02-01T14:21:52;17.15;;;4.72;;
52102;SDS011;38101;53.126;6.878;2023-02-01T14:24:27;17.50;;;4.93;;
52102;SDS011;38101;53.126;6.878;2023-02-01T14:26:56;13.57;;;4.18;;
52102;SDS011;38101;53.126;6.878;2023-02-01T14:32:18;19.25;;;4.63;;
52102;SDS011;38101;53.126;6.878;2023-02-01T14:55:45;15.90;;;4.55;;
52102;SDS011;38101;53.126;6.878;2023-02-01T15:01:16;15.80;;;4.78;;
52102;SDS011;38101;53.126;6.878;2023-02-01T15:06:40;20.30;;;4.95;;
52102;SDS011;38101;53.126;6.878;2023-02-01T15:11:54;22.08;;;5.40;;
52102;SDS011;38101;53.126;6.878;2023-02-01T15:14:22;21.35;;;5.45;;
52102;SDS011;38101;53.126;6.878;2023-02-01T15:16:49;16.70;;;5.60;;
52102;SDS011;38101;53.126;6.878;2023-02-01T15:19:25;20.25;;;5.13;;
52102;SDS011;38101;53.126;6.878;2023-02-01T15:21:56;13.73;;;4.10;;
52102;SDS011;38101;53.126;6.878;2023-02-01T15:24:27;18.60;;;5.30;;
52102;SDS011;38101;53.126;6.878;2023-02-01T15:26:55;18.88;;;4.90;;
52102;SDS011;38101;53.126;6.878;2023-02-01T15:29:28;19.70;;;5.10;;
52102;SDS011;38101;53.126;6.878;2023-02-01T15:31:57;18.27;;;4.53;;
52102;SDS011;38101;53.126;6.878;2023-02-01T15:34:23;16.75;;;4.78;;
52102;SDS011;38101;53.126;6.878;2023-02-01T15:37:13;19.67;;;4.75;;
52102;SDS011;38101;53.126;6.878;2023-02-01T15:42:28;15.35;;;4.15;;
52102;SDS011;38101;53.126;6.878;2023-02-01T15:44:54;16.30;;;4.45;;
52102;SDS011;38101;53.126;6.878;2023-02-01T15:47:24;19.42;;;4.70;;
52102;SDS011;38101;53.126;6.878;2023-02-01T15:49:53;13.50;;;4.55;;
52102;SDS011;38101;53.126;6.878;2023-02-01T15:54:59;18.92;;;4.85;;
52102;SDS011;38101;53.126;6.878;2023-02-01T15:57:34;15.90;;;5.22;;
52102;SDS011;38101;53.126;6.878;2023-02-01T16:02:37;15.50;;;3.97;;
52102;SDS011;38101;53.126;6.878;2023-02-01T16:08:11;19.45;;;5.05;;
52102;SDS011;38101;53.126;6.878;2023-02-01T16:10:47;17.40;;;4.78;;
52102;SDS011;38101;53.126;6.878;2023-02-01T16:13:16;16.02;;;4.53;;
52102;SDS011;38101;53.126;6.878;2023-02-01T16:15:42;19.08;;;4.60;;
52102;SDS011;38101;53.126;6.878;2023-02-01T16:18:08;20.00;;;4.50;;
52102;SDS011;38101;53.126;6.878;2023-02-01T16:20:36;15.85;;;4.28;;
52102;SDS011;38101;53.126;6.878;2023-02-01T16:23:03;18.55;;;5.10;;
52102;SDS011;38101;53.126;6.878;2023-02-01T16:25:29;16.10;;;4.93;;
52102;SDS011;38101;53.126;6.878;2023-02-01T16:27:55;16.85;;;3.72;;
52102;SDS011;38101;53.126;6.878;2023-02-01T16:30:21;11.48;;;3.88;;
52102;SDS011;38101;53.126;6.878;2023-02-01T16:32:48;18.40;;;4.88;;
52102;SDS011;38101;53.126;6.878;2023-02-01T16:35:17;13.35;;;4.38;;
52102;SDS011;38101;53.126;6.878;2023-02-01T16:37:47;12.98;;;4.82;;
52102;SDS011;38101;53.126;6.878;2023-02-01T16:40:13;15.05;;;4.10;;
52102;SDS011;38101;53.126;6.878;2023-02-01T16:42:40;18.30;;;4.60;;
52102;SDS011;38101;53.126;6.878;2023-02-01T16:45:06;17.52;;;4.97;;
52102;SDS011;38101;53.126;6.878;2023-02-01T16:47:33;13.88;;;4.03;;
52102;SDS011;38101;53.126;6.878;2023-02-01T16:50:01;17.38;;;4.00;;
52102;SDS011;38101;53.126;6.878;2023-02-01T16:52:26;13.23;;;4.18;;
52102;SDS011;38101;53.126;6.878;2023-02-01T16:54:52;14.77;;;3.95;;
52102;SDS011;38101;53.126;6.878;2023-02-01T16:57:19;16.15;;;4.13;;
52102;SDS011;38101;53.126;6.878;2023-02-01T16:59:48;16.08;;;4.05;;
52102;SDS011;38101;53.126;6.878;2023-02-01T17:02:16;17.33;;;3.90;;
52102;SDS011;38101;53.126;6.878;2023-02-01T17:04:44;15.13;;;4.45;;
52102;SDS011;38101;53.126;6.878;2023-02-01T17:07:17;12.02;;;3.83;;
52102;SDS011;38101;53.126;6.878;2023-02-01T17:09:44;17.52;;;4.85;;
52102;SDS011;38101;53.126;6.878;2023-02-01T17:12:32;12.45;;;3.88;;
52102;SDS011;38101;53.126;6.878;2023-02-01T17:14:58;16.65;;;4.40;;
52102;SDS011;38101;53.126;6.878;2023-02-01T17:17:30;15.15;;;4.25;;
52102;SDS011;38101;53.126;6.878;2023-02-01T17:20:00;12.65;;;3.80;;
52102;SDS011;38101;53.126;6.878;2023-02-01T17:22:26;16.58;;;4.10;;
52102;SDS011;38101;53.126;6.878;2023-02-01T17:24:51;14.90;;;4.07;;
52102;SDS011;38101;53.126;6.878;2023-02-01T17:27:17;16.77;;;4.28;;
52102;SDS011;38101;53.126;6.878;2023-02-01T17:29:43;15.07;;;3.60;;
52102;SDS011;38101;53.126;6.878;2023-02-01T17:32:18;16.73;;;4.13;;
52102;SDS011;38101;53.126;6.878;2023-02-01T17:34:46;21.70;;;4.07;;
52102;SDS011;38101;53.126;6.878;2023-02-01T17:37:17;16.65;;;4.45;;
52102;SDS011;38101;53.126;6.878;2023-02-01T17:39:50;15.30;;;5.05;;
52102;SDS011;38101;53.126;6.878;2023-02-01T17:42:22;18.75;;;4.45;;
52102;SDS011;38101;53.126;6.878;2023-02-01T17:44:53;17.15;;;4.40;;
52102;SDS011;38101;53.126;6.878;2023-02-01T17:47:24;15.35;;;4.30;;